sensor_id;sensor_type;location;lat;lon;timestamp;P1;durP1;ratioP1;P2;durP2;ratioP2
49029;SDS011;43337;52.070;4.508;2023-07-29T00:00:44;5.35;;;1.38;;
49029;SDS011;43337;52.070;4.508;2023-07-29T00:03:13;4.53;;;1.48;;
49029;SDS011;43337;52.070;4.508;2023-07-29T00:05:40;4.13;;;1.30;;
49029;SDS011;43337;52.070;4.508;2023-07-29T00:08:06;3.60;;;1.20;;
49029;SDS011;43337;52.070;4.508;2023-07-29T00:10:32;3.33;;;1.10;;
49029;SDS011;43337;52.070;4.508;2023-07-29T00:13:00;4.78;;;1.20;;
49029;SDS011;43337;52.070;4.508;2023-07-29T00:15:26;4.40;;;1.00;;
49029;SDS011;43337;52.070;4.508;2023-07-29T00:17:51;3.00;;;1.00;;
49029;SDS011;43337;52.070;4.508;2023-07-29T00:20:17;5.38;;;1.67;;
49029;SDS011;43337;52.070;4.508;2023-07-29T00:22:42;2.65;;;0.90;;
49029;SDS011;43337;52.070;4.508;2023-07-29T00:25:07;5.82;;;1.15;;
49029;SDS011;43337;52.070;4.508;2023-07-29T00:27:33;3.80;;;0.90;;
49029;SDS011;43337;52.070;4.508;2023-07-29T00:29:58;3.80;;;1.25;;
49029;SDS011;43337;52.070;4.508;2023-07-29T00:32:23;5.07;;;1.15;;
49029;SDS011;43337;52.070;4.508;2023-07-29T00:34:49;4.18;;;1.10;;
49029;SDS011;43337;52.070;4.508;2023-07-29T00:37:14;6.57;;;1.23;;
49029;SDS011;43337;52.070;4.508;2023-07-29T00:39:39;3.85;;;1.10;;
49029;SDS011;43337;52.070;4.508;2023-07-29T00:42:05;3.85;;;1.02;;
49029;SDS011;43337;52.070;4.508;2023-07-29T00:44:31;3.42;;;1.02;;
49029;SDS011;43337;52.070;4.508;2023-07-29T00:46:56;5.68;;;1.35;;
49029;SDS011;43337;52.070;4.508;2023-07-29T00:49:22;4.72;;;1.27;;
49029;SDS011;43337;52.070;4.508;2023-07-29T00:51:48;3.65;;;1.17;;
49029;SDS011;43337;52.070;4.508;2023-07-29T00:54:14;3.45;;;0.90;;
49029;SDS011;43337;52.070;4.508;2023-07-29T00:56:40;4.50;;;1.30;;
49029;SDS011;43337;52.070;4.508;2023-07-29T00:59:05;5.05;;;1.75;;
49029;SDS011;43337;52.070;4.508;2023-07-29T01:01:31;6.20;;;1.40;;
49029;SDS011;43337;52.070;4.508;2023-07-29T01:03:57;5.22;;;1.52;;
49029;SDS011;43337;52.070;4.508;2023-07-29T01:09:21;4.30;;;1.08;;
49029;SDS011;43337;52.070;4.508;2023-07-29T01:17:37;4.32;;;1.42;;
49029;SDS011;43337;52.070;4.508;2023-07-29T01:20:23;4.45;;;1.75;;
49029;SDS011;43337;52.070;4.508;2023-07-29T01:22:50;4.15;;;1.40;;
49029;SDS011;43337;52.070;4.508;2023-07-29T01:25:16;3.80;;;0.93;;
49029;SDS011;43337;52.070;4.508;2023-07-29T01:27:42;4.20;;;1.40;;
49029;SDS011;43337;52.070;4.508;2023-07-29T01:30:09;4.07;;;1.25;;
49029;SDS011;43337;52.070;4.508;2023-07-29T01:32:37;4.55;;;1.63;;
49029;SDS011;43337;52.070;4.508;2023-07-29T01:37:48;5.18;;;1.50;;
49029;SDS011;43337;52.070;4.508;2023-07-29T01:40:16;4.28;;;1.35;;
49029;SDS011;43337;52.070;4.508;2023-07-29T01:42:43;6.35;;;1.50;;
49029;SDS011;43337;52.070;4.508;2023-07-29T01:45:10;5.07;;;1.40;;
49029;SDS011;43337;52.070;4.508;2023-07-29T01:47:36;5.20;;;1.92;;
49029;SDS011;43337;52.070;4.508;2023-07-29T01:50:03;5.93;;;1.65;;
49029;SDS011;43337;52.070;4.508;2023-07-29T01:52:29;5.35;;;1.50;;
49029;SDS011;43337;52.070;4.508;2023-07-29T01:54:54;8.27;;;1.50;;
49029;SDS011;43337;52.070;4.508;2023-07-29T01:57:19;4.93;;;1.58;;
49029;SDS011;43337;52.070;4.508;2023-07-29T01:59:45;5.10;;;1.80;;
49029;SDS011;43337;52.070;4.508;2023-07-29T02:02:10;4.50;;;1.60;;
49029;SDS011;43337;52.070;4.508;2023-07-29T02:04:35;5.70;;;1.30;;
49029;SDS011;43337;52.070;4.508;2023-07-29T02:07:01;7.25;;;1.90;;
49029;SDS011;43337;52.070;4.508;2023-07-29T02:09:27;3.55;;;1.30;;
49029;SDS011;43337;52.070;4.508;2023-07-29T02:11:52;5.70;;;1.52;;
49029;SDS011;43337;52.070;4.508;2023-07-29T02:14:18;4.35;;;1.63;;
49029;SDS011;43337;52.070;4.508;2023-07-29T02:16:43;5.68;;;2.20;;
49029;SDS011;43337;52.070;4.508;2023-07-29T02:19:08;4.55;;;1.40;;
49029;SDS011;43337;52.070;4.508;2023-07-29T02:21:34;8.98;;;2.33;;
49029;SDS011;43337;52.070;4.508;2023-07-29T02:23:59;5.88;;;1.73;;
49029;SDS011;43337;52.070;4.508;2023-07-29T02:26:24;5.97;;;1.88;;
49029;SDS011;43337;52.070;4.508;2023-07-29T02:28:50;5.60;;;1.73;;
49029;SDS011;43337;52.070;4.508;2023-07-29T02:31:22;4.18;;;1.40;;
49029;SDS011;43337;52.070;4.508;2023-07-29T02:33:49;3.85;;;1.65;;
49029;SDS011;43337;52.070;4.508;2023-07-29T02:36:16;3.95;;;1.45;;
49029;SDS011;43337;52.070;4.508;2023-07-29T02:38:42;7.30;;;1.73;;
49029;SDS011;43337;52.070;4.508;2023-07-29T02:41:07;3.38;;;1.40;;
49029;SDS011;43337;52.070;4.508;2023-07-29T02:43:34;6.68;;;1.65;;
49029;SDS011;43337;52.070;4.508;2023-07-29T02:46:00;4.35;;;1.83;;
49029;SDS011;43337;52.070;4.508;2023-07-29T02:48:26;4.22;;;1.50;;
49029;SDS011;43337;52.070;4.508;2023-07-29T02:50:51;5.53;;;1.77;;
49029;SDS011;43337;52.070;4.508;2023-07-29T02:53:16;4.68;;;2.08;;
49029;SDS011;43337;52.070;4.508;2023-07-29T02:55:42;3.90;;;1.50;;
49029;SDS011;43337;52.070;4.508;2023-07-29T02:58:07;6.35;;;1.70;;
49029;SDS011;43337;52.070;4.508;2023-07-29T03:00:33;5.55;;;1.50;;
49029;SDS011;43337;52.070;4.508;2023-07-29T03:02:58;6.32;;;1.55;;
49029;SDS011;43337;52.070;4.508;2023-07-29T03:05:24;5.75;;;1.52;;
49029;SDS011;43337;52.070;4.508;2023-07-29T03:07:52;6.85;;;2.22;;
49029;SDS011;43337;52.070;4.508;2023-07-29T03:10:17;4.18;;;1.63;;
49029;SDS011;43337;52.070;4.508;2023-07-29T03:12:42;8.27;;;1.70;;
49029;SDS011;43337;52.070;4.508;2023-07-29T03:15:08;4.75;;;1.73;;
49029;SDS011;43337;52.070;4.508;2023-07-29T03:17:33;4.15;;;1.92;;
49029;SDS011;43337;52.070;4.508;2023-07-29T03:19:59;4.10;;;1.55;;
49029;SDS011;43337;52.070;4.508;2023-07-29T03:22:24;5.43;;;1.73;;
49029;SDS011;43337;52.070;4.508;2023-07-29T03:24:49;4.28;;;1.95;;
49029;SDS011;43337;52.070;4.508;2023-07-29T03:27:14;5.30;;;1.75;;
49029;SDS011;43337;52.070;4.508;2023-07-29T03:29:41;5.90;;;1.83;;
49029;SDS011;43337;52.070;4.508;2023-07-29T03:32:06;5.20;;;1.50;;
49029;SDS011;43337;52.070;4.508;2023-07-29T03:34:32;6.35;;;1.67;;
49029;SDS011;43337;52.070;4.508;2023-07-29T03:36:57;8.90;;;1.52;;
49029;SDS011;43337;52.070;4.508;2023-07-29T03:39:24;4.28;;;1.80;;
49029;SDS011;43337;52.070;4.508;2023-07-29T03:41:49;4.57;;;1.50;;
49029;SDS011;43337;52.070;4.508;2023-07-29T03:44:15;4.85;;;1.65;;
49029;SDS011;43337;52.070;4.508;2023-07-29T03:46:40;6.50;;;1.88;;
49029;SDS011;43337;52.070;4.508;2023-07-29T03:49:05;5.47;;;1.90;;
49029;SDS011;43337;52.070;4.508;2023-07-29T03:51:30;7.05;;;2.33;;
49029;SDS011;43337;52.070;4.508;2023-07-29T03:53:56;4.57;;;1.75;;
49029;SDS011;43337;52.070;4.508;2023-07-29T03:56:21;5.10;;;1.92;;
49029;SDS011;43337;52.070;4.508;2023-07-29T03:58:47;6.65;;;2.05;;
49029;SDS011;43337;52.070;4.508;2023-07-29T04:01:15;6.88;;;1.90;;
49029;SDS011;43337;52.070;4.508;2023-07-29T04:03:40;6.65;;;2.10;;
49029;SDS011;43337;52.070;4.508;2023-07-29T04:06:05;4.93;;;2.30;;
49029;SDS011;43337;52.070;4.508;2023-07-29T04:08:31;14.07;;;2.65;;
49029;SDS011;43337;52.070;4.508;2023-07-29T04:10:56;8.45;;;2.17;;
49029;SDS011;43337;52.070;4.508;2023-07-29T04:13:22;7.13;;;1.83;;
49029;SDS011;43337;52.070;4.508;2023-07-29T04:15:47;5.93;;;2.65;;
49029;SDS011;43337;52.070;4.508;2023-07-29T04:18:12;6.47;;;2.42;;
49029;SDS011;43337;52.070;4.508;2023-07-29T04:20:38;5.55;;;2.40;;
49029;SDS011;43337;52.070;4.508;2023-07-29T04:23:03;6.38;;;2.15;;
49029;SDS011;43337;52.070;4.508;2023-07-29T04:25:28;5.82;;;2.58;;
49029;SDS011;43337;52.070;4.508;2023-07-29T04:27:54;8.82;;;2.90;;
49029;SDS011;43337;52.070;4.508;2023-07-29T04:30:19;7.57;;;3.13;;
49029;SDS011;43337;52.070;4.508;2023-07-29T04:32:44;6.85;;;2.50;;
49029;SDS011;43337;52.070;4.508;2023-07-29T04:35:13;6.72;;;2.50;;
49029;SDS011;43337;52.070;4.508;2023-07-29T04:37:39;7.10;;;2.70;;
49029;SDS011;43337;52.070;4.508;2023-07-29T04:40:05;8.18;;;2.55;;
49029;SDS011;43337;52.070;4.508;2023-07-29T04:42:31;9.38;;;2.65;;
49029;SDS011;43337;52.070;4.508;2023-07-29T04:44:56;6.38;;;2.80;;
49029;SDS011;43337;52.070;4.508;2023-07-29T04:47:22;10.02;;;3.30;;
49029;SDS011;43337;52.070;4.508;2023-07-29T04:49:48;8.85;;;2.92;;
49029;SDS011;43337;52.070;4.508;2023-07-29T04:52:13;6.85;;;2.55;;
49029;SDS011;43337;52.070;4.508;2023-07-29T04:54:40;10.23;;;3.08;;
49029;SDS011;43337;52.070;4.508;2023-07-29T04:57:05;9.98;;;3.45;;
49029;SDS011;43337;52.070;4.508;2023-07-29T04:59:31;6.45;;;3.20;;
49029;SDS011;43337;52.070;4.508;2023-07-29T05:01:56;8.38;;;2.92;;
49029;SDS011;43337;52.070;4.508;2023-07-29T05:04:21;7.18;;;3.05;;
49029;SDS011;43337;52.070;4.508;2023-07-29T05:06:47;6.72;;;2.75;;
49029;SDS011;43337;52.070;4.508;2023-07-29T05:09:16;8.05;;;2.83;;
49029;SDS011;43337;52.070;4.508;2023-07-29T05:11:47;6.73;;;3.03;;
49029;SDS011;43337;52.070;4.508;2023-07-29T05:14:15;7.40;;;2.92;;
49029;SDS011;43337;52.070;4.508;2023-07-29T05:16:42;11.55;;;3.88;;
49029;SDS011;43337;52.070;4.508;2023-07-29T05:19:08;7.35;;;2.50;;
49029;SDS011;43337;52.070;4.508;2023-07-29T05:21:33;9.40;;;2.85;;
49029;SDS011;43337;52.070;4.508;2023-07-29T05:23:59;8.48;;;2.75;;
49029;SDS011;43337;52.070;4.508;2023-07-29T05:26:24;6.97;;;2.97;;
49029;SDS011;43337;52.070;4.508;2023-07-29T05:28:50;15.88;;;4.28;;
49029;SDS011;43337;52.070;4.508;2023-07-29T05:31:15;7.57;;;3.42;;
49029;SDS011;43337;52.070;4.508;2023-07-29T05:33:42;11.18;;;3.17;;
49029;SDS011;43337;52.070;4.508;2023-07-29T05:36:07;12.30;;;3.58;;
49029;SDS011;43337;52.070;4.508;2023-07-29T05:38:32;10.32;;;3.72;;
49029;SDS011;43337;52.070;4.508;2023-07-29T05:40:59;7.80;;;3.38;;
49029;SDS011;43337;52.070;4.508;2023-07-29T05:43:25;10.20;;;2.70;;
49029;SDS011;43337;52.070;4.508;2023-07-29T05:45:51;10.32;;;4.47;;
49029;SDS011;43337;52.070;4.508;2023-07-29T05:48:17;12.38;;;4.15;;
49029;SDS011;43337;52.070;4.508;2023-07-29T05:50:42;11.57;;;3.17;;
49029;SDS011;43337;52.070;4.508;2023-07-29T05:53:07;13.38;;;5.50;;
49029;SDS011;43337;52.070;4.508;2023-07-29T05:55:33;15.60;;;5.97;;
49029;SDS011;43337;52.070;4.508;2023-07-29T05:57:58;9.55;;;3.35;;
49029;SDS011;43337;52.070;4.508;2023-07-29T06:00:25;6.47;;;2.70;;
49029;SDS011;43337;52.070;4.508;2023-07-29T06:02:50;14.02;;;3.13;;
49029;SDS011;43337;52.070;4.508;2023-07-29T06:05:16;9.60;;;3.17;;
49029;SDS011;43337;52.070;4.508;2023-07-29T06:07:41;8.70;;;3.15;;
49029;SDS011;43337;52.070;4.508;2023-07-29T06:10:10;9.13;;;2.90;;
49029;SDS011;43337;52.070;4.508;2023-07-29T06:12:38;7.82;;;2.63;;
49029;SDS011;43337;52.070;4.508;2023-07-29T06:15:04;7.20;;;3.08;;
49029;SDS011;43337;52.070;4.508;2023-07-29T06:17:30;6.85;;;2.42;;
49029;SDS011;43337;52.070;4.508;2023-07-29T06:19:55;9.15;;;2.40;;
49029;SDS011;43337;52.070;4.508;2023-07-29T06:22:20;7.13;;;2.22;;
49029;SDS011;43337;52.070;4.508;2023-07-29T06:24:46;11.07;;;3.55;;
49029;SDS011;43337;52.070;4.508;2023-07-29T06:27:11;9.70;;;2.50;;
49029;SDS011;43337;52.070;4.508;2023-07-29T06:29:37;5.93;;;2.20;;
49029;SDS011;43337;52.070;4.508;2023-07-29T06:32:02;10.55;;;2.28;;
49029;SDS011;43337;52.070;4.508;2023-07-29T06:34:28;10.15;;;3.05;;
49029;SDS011;43337;52.070;4.508;2023-07-29T06:36:53;7.57;;;2.53;;
49029;SDS011;43337;52.070;4.508;2023-07-29T06:39:18;10.60;;;2.55;;
49029;SDS011;43337;52.070;4.508;2023-07-29T06:41:44;11.77;;;3.63;;
49029;SDS011;43337;52.070;4.508;2023-07-29T06:44:09;7.72;;;2.67;;
49029;SDS011;43337;52.070;4.508;2023-07-29T06:46:34;4.80;;;1.80;;
49029;SDS011;43337;52.070;4.508;2023-07-29T06:49:00;6.22;;;2.25;;
49029;SDS011;43337;52.070;4.508;2023-07-29T06:51:25;10.20;;;2.15;;
49029;SDS011;43337;52.070;4.508;2023-07-29T06:53:50;5.88;;;2.40;;
49029;SDS011;43337;52.070;4.508;2023-07-29T06:56:16;9.52;;;1.95;;
49029;SDS011;43337;52.070;4.508;2023-07-29T06:58:41;6.60;;;2.00;;
49029;SDS011;43337;52.070;4.508;2023-07-29T07:01:06;7.13;;;1.70;;
49029;SDS011;43337;52.070;4.508;2023-07-29T07:03:32;5.00;;;2.00;;
49029;SDS011;43337;52.070;4.508;2023-07-29T07:05:57;7.28;;;1.50;;
49029;SDS011;43337;52.070;4.508;2023-07-29T07:08:23;7.53;;;1.45;;
49029;SDS011;43337;52.070;4.508;2023-07-29T07:10:49;7.65;;;2.10;;
49029;SDS011;43337;52.070;4.508;2023-07-29T07:13:14;8.77;;;2.45;;
49029;SDS011;43337;52.070;4.508;2023-07-29T07:15:39;5.25;;;1.17;;
49029;SDS011;43337;52.070;4.508;2023-07-29T07:18:05;9.25;;;1.48;;
49029;SDS011;43337;52.070;4.508;2023-07-29T07:20:30;5.55;;;1.33;;
49029;SDS011;43337;52.070;4.508;2023-07-29T07:22:55;6.40;;;1.30;;
49029;SDS011;43337;52.070;4.508;2023-07-29T07:25:21;4.15;;;1.20;;
49029;SDS011;43337;52.070;4.508;2023-07-29T07:27:46;2.58;;;1.00;;
49029;SDS011;43337;52.070;4.508;2023-07-29T07:30:12;5.70;;;1.55;;
49029;SDS011;43337;52.070;4.508;2023-07-29T07:32:37;4.70;;;1.10;;
49029;SDS011;43337;52.070;4.508;2023-07-29T07:35:03;4.28;;;1.10;;
49029;SDS011;43337;52.070;4.508;2023-07-29T07:37:29;2.80;;;0.75;;
49029;SDS011;43337;52.070;4.508;2023-07-29T07:39:54;4.05;;;1.25;;
49029;SDS011;43337;52.070;4.508;2023-07-29T07:42:20;3.67;;;0.90;;
49029;SDS011;43337;52.070;4.508;2023-07-29T07:44:45;3.67;;;1.33;;
49029;SDS011;43337;52.070;4.508;2023-07-29T07:47:10;4.25;;;1.10;;
49029;SDS011;43337;52.070;4.508;2023-07-29T07:49:36;5.15;;;1.20;;
49029;SDS011;43337;52.070;4.508;2023-07-29T07:52:01;3.13;;;1.05;;
49029;SDS011;43337;52.070;4.508;2023-07-29T07:54:26;3.00;;;0.90;;
49029;SDS011;43337;52.070;4.508;2023-07-29T07:56:51;5.43;;;1.48;;
49029;SDS011;43337;52.070;4.508;2023-07-29T07:59:17;2.78;;;1.10;;
49029;SDS011;43337;52.070;4.508;2023-07-29T08:01:42;5.80;;;1.27;;
49029;SDS011;43337;52.070;4.508;2023-07-29T08:04:07;5.22;;;1.23;;
49029;SDS011;43337;52.070;4.508;2023-07-29T08:06:33;8.95;;;1.35;;
49029;SDS011;43337;52.070;4.508;2023-07-29T08:08:58;3.95;;;1.50;;
49029;SDS011;43337;52.070;4.508;2023-07-29T08:11:24;7.22;;;1.48;;
49029;SDS011;43337;52.070;4.508;2023-07-29T08:13:50;6.50;;;1.45;;
49029;SDS011;43337;52.070;4.508;2023-07-29T08:16:15;7.57;;;1.63;;
49029;SDS011;43337;52.070;4.508;2023-07-29T08:18:40;7.32;;;1.50;;
49029;SDS011;43337;52.070;4.508;2023-07-29T08:21:06;3.60;;;1.23;;
49029;SDS011;43337;52.070;4.508;2023-07-29T08:23:32;8.13;;;1.73;;
49029;SDS011;43337;52.070;4.508;2023-07-29T08:25:58;5.78;;;1.30;;
49029;SDS011;43337;52.070;4.508;2023-07-29T08:28:39;6.57;;;1.83;;
49029;SDS011;43337;52.070;4.508;2023-07-29T08:31:05;3.42;;;1.13;;
49029;SDS011;43337;52.070;4.508;2023-07-29T08:33:31;4.65;;;1.40;;
49029;SDS011;43337;52.070;4.508;2023-07-29T08:35:58;6.22;;;1.83;;
49029;SDS011;43337;52.070;4.508;2023-07-29T08:38:25;3.03;;;1.20;;
49029;SDS011;43337;52.070;4.508;2023-07-29T08:40:53;5.20;;;1.27;;
49029;SDS011;43337;52.070;4.508;2023-07-29T08:43:25;3.13;;;1.00;;
49029;SDS011;43337;52.070;4.508;2023-07-29T08:45:57;4.93;;;1.40;;
49029;SDS011;43337;52.070;4.508;2023-07-29T08:48:29;4.70;;;1.30;;
49029;SDS011;43337;52.070;4.508;2023-07-29T08:51:00;5.13;;;1.53;;
49029;SDS011;43337;52.070;4.508;2023-07-29T08:53:28;5.47;;;1.25;;
49029;SDS011;43337;52.070;4.508;2023-07-29T08:55:54;5.15;;;1.50;;
49029;SDS011;43337;52.070;4.508;2023-07-29T08:58:20;4.03;;;1.17;;
49029;SDS011;43337;52.070;4.508;2023-07-29T09:00:46;4.18;;;1.10;;
49029;SDS011;43337;52.070;4.508;2023-07-29T09:03:12;7.05;;;1.75;;
49029;SDS011;43337;52.070;4.508;2023-07-29T09:05:38;2.97;;;1.30;;
49029;SDS011;43337;52.070;4.508;2023-07-29T09:08:03;5.93;;;1.00;;
49029;SDS011;43337;52.070;4.508;2023-07-29T09:10:29;3.05;;;1.35;;
49029;SDS011;43337;52.070;4.508;2023-07-29T09:12:54;8.18;;;2.15;;
49029;SDS011;43337;52.070;4.508;2023-07-29T09:15:27;5.50;;;1.65;;
49029;SDS011;43337;52.070;4.508;2023-07-29T09:20:27;6.47;;;2.20;;
49029;SDS011;43337;52.070;4.508;2023-07-29T09:22:59;5.38;;;2.20;;
49029;SDS011;43337;52.070;4.508;2023-07-29T09:25:46;7.50;;;2.50;;
49029;SDS011;43337;52.070;4.508;2023-07-29T09:28:13;7.78;;;2.63;;
49029;SDS011;43337;52.070;4.508;2023-07-29T09:30:39;5.28;;;2.67;;
49029;SDS011;43337;52.070;4.508;2023-07-29T09:33:07;5.38;;;2.60;;
49029;SDS011;43337;52.070;4.508;2023-07-29T09:35:34;8.13;;;2.60;;
49029;SDS011;43337;52.070;4.508;2023-07-29T09:38:01;7.55;;;2.47;;
49029;SDS011;43337;52.070;4.508;2023-07-29T09:40:37;9.98;;;2.28;;
49029;SDS011;43337;52.070;4.508;2023-07-29T09:43:04;7.60;;;2.40;;
49029;SDS011;43337;52.070;4.508;2023-07-29T09:45:32;10.10;;;3.13;;
49029;SDS011;43337;52.070;4.508;2023-07-29T09:47:58;4.05;;;2.10;;
49029;SDS011;43337;52.070;4.508;2023-07-29T09:50:24;6.43;;;2.60;;
49029;SDS011;43337;52.070;4.508;2023-07-29T09:52:51;8.82;;;2.90;;
49029;SDS011;43337;52.070;4.508;2023-07-29T09:55:19;6.72;;;2.65;;
49029;SDS011;43337;52.070;4.508;2023-07-29T09:57:46;8.45;;;3.35;;
49029;SDS011;43337;52.070;4.508;2023-07-29T10:00:12;6.82;;;3.03;;
49029;SDS011;43337;52.070;4.508;2023-07-29T10:02:42;4.60;;;2.05;;
49029;SDS011;43337;52.070;4.508;2023-07-29T10:05:08;4.75;;;1.75;;
49029;SDS011;43337;52.070;4.508;2023-07-29T10:07:36;4.22;;;1.80;;
49029;SDS011;43337;52.070;4.508;2023-07-29T10:10:03;4.75;;;1.77;;
49029;SDS011;43337;52.070;4.508;2023-07-29T10:12:30;4.80;;;1.80;;
49029;SDS011;43337;52.070;4.508;2023-07-29T10:14:58;3.80;;;1.67;;
49029;SDS011;43337;52.070;4.508;2023-07-29T10:17:25;8.02;;;2.80;;
49029;SDS011;43337;52.070;4.508;2023-07-29T10:19:51;6.35;;;2.00;;
49029;SDS011;43337;52.070;4.508;2023-07-29T10:22:17;3.08;;;1.40;;
49029;SDS011;43337;52.070;4.508;2023-07-29T10:24:46;5.38;;;1.58;;
49029;SDS011;43337;52.070;4.508;2023-07-29T10:27:14;3.95;;;1.50;;
49029;SDS011;43337;52.070;4.508;2023-07-29T10:29:42;7.05;;;1.45;;
49029;SDS011;43337;52.070;4.508;2023-07-29T10:32:09;5.32;;;1.48;;
49029;SDS011;43337;52.070;4.508;2023-07-29T10:34:36;5.50;;;1.50;;
49029;SDS011;43337;52.070;4.508;2023-07-29T10:37:01;5.90;;;1.20;;
49029;SDS011;43337;52.070;4.508;2023-07-29T10:39:27;4.85;;;0.90;;
49029;SDS011;43337;52.070;4.508;2023-07-29T10:41:59;4.15;;;0.70;;
49029;SDS011;43337;52.070;4.508;2023-07-29T10:47:22;3.22;;;0.98;;
49029;SDS011;43337;52.070;4.508;2023-07-29T10:49:53;2.67;;;0.70;;
49029;SDS011;43337;52.070;4.508;2023-07-29T10:52:30;1.73;;;0.68;;
49029;SDS011;43337;52.070;4.508;2023-07-29T10:55:04;2.78;;;0.82;;
49029;SDS011;43337;52.070;4.508;2023-07-29T10:57:49;2.90;;;0.82;;
49029;SDS011;43337;52.070;4.508;2023-07-29T11:00:15;4.03;;;1.00;;
49029;SDS011;43337;52.070;4.508;2023-07-29T11:02:40;2.08;;;0.75;;
49029;SDS011;43337;52.070;4.508;2023-07-29T11:05:07;3.03;;;0.90;;
49029;SDS011;43337;52.070;4.508;2023-07-29T11:07:44;4.72;;;1.40;;
49029;SDS011;43337;52.070;4.508;2023-07-29T11:10:11;4.68;;;1.40;;
49029;SDS011;43337;52.070;4.508;2023-07-29T11:12:41;3.35;;;1.20;;
49029;SDS011;43337;52.070;4.508;2023-07-29T11:15:14;2.67;;;1.25;;
49029;SDS011;43337;52.070;4.508;2023-07-29T11:17:48;3.20;;;1.45;;
49029;SDS011;43337;52.070;4.508;2023-07-29T11:20:17;3.83;;;1.20;;
49029;SDS011;43337;52.070;4.508;2023-07-29T11:22:44;3.50;;;1.42;;
49029;SDS011;43337;52.070;4.508;2023-07-29T11:25:11;3.58;;;1.42;;
49029;SDS011;43337;52.070;4.508;2023-07-29T11:27:38;2.00;;;1.20;;
49029;SDS011;43337;52.070;4.508;2023-07-29T11:30:05;2.75;;;1.15;;
49029;SDS011;43337;52.070;4.508;2023-07-29T11:32:35;2.20;;;1.08;;
49029;SDS011;43337;52.070;4.508;2023-07-29T11:35:02;3.65;;;1.55;;
49029;SDS011;43337;52.070;4.508;2023-07-29T11:37:28;5.88;;;1.50;;
49029;SDS011;43337;52.070;4.508;2023-07-29T11:39:54;4.78;;;1.65;;
49029;SDS011;43337;52.070;4.508;2023-07-29T11:42:19;2.78;;;1.23;;
49029;SDS011;43337;52.070;4.508;2023-07-29T11:44:45;3.40;;;1.38;;
49029;SDS011;43337;52.070;4.508;2023-07-29T11:47:11;3.45;;;1.30;;
49029;SDS011;43337;52.070;4.508;2023-07-29T11:49:40;5.22;;;1.50;;
49029;SDS011;43337;52.070;4.508;2023-07-29T11:52:08;4.63;;;1.48;;
49029;SDS011;43337;52.070;4.508;2023-07-29T11:54:35;3.03;;;1.30;;
49029;SDS011;43337;52.070;4.508;2023-07-29T11:57:03;4.70;;;1.45;;
49029;SDS011;43337;52.070;4.508;2023-07-29T11:59:35;3.45;;;1.10;;
49029;SDS011;43337;52.070;4.508;2023-07-29T12:02:02;3.60;;;1.10;;
49029;SDS011;43337;52.070;4.508;2023-07-29T12:04:33;2.25;;;1.00;;
49029;SDS011;43337;52.070;4.508;2023-07-29T12:06:59;4.38;;;1.10;;
49029;SDS011;43337;52.070;4.508;2023-07-29T12:09:25;3.10;;;1.30;;
49029;SDS011;43337;52.070;4.508;2023-07-29T12:11:52;4.82;;;1.15;;
49029;SDS011;43337;52.070;4.508;2023-07-29T12:14:18;3.42;;;1.02;;
49029;SDS011;43337;52.070;4.508;2023-07-29T12:16:44;5.75;;;1.30;;
49029;SDS011;43337;52.070;4.508;2023-07-29T12:19:12;3.60;;;1.10;;
49029;SDS011;43337;52.070;4.508;2023-07-29T12:21:39;4.20;;;1.10;;
49029;SDS011;43337;52.070;4.508;2023-07-29T12:24:06;4.15;;;1.10;;
49029;SDS011;43337;52.070;4.508;2023-07-29T12:26:32;3.10;;;1.20;;
49029;SDS011;43337;52.070;4.508;2023-07-29T12:28:57;3.92;;;1.20;;
49029;SDS011;43337;52.070;4.508;2023-07-29T12:31:32;3.25;;;1.20;;
49029;SDS011;43337;52.070;4.508;2023-07-29T12:33:58;4.85;;;1.05;;
49029;SDS011;43337;52.070;4.508;2023-07-29T12:36:27;6.00;;;1.33;;
49029;SDS011;43337;52.070;4.508;2023-07-29T12:39:15;4.82;;;1.10;;
49029;SDS011;43337;52.070;4.508;2023-07-29T12:41:43;3.03;;;1.15;;
49029;SDS011;43337;52.070;4.508;2023-07-29T12:44:08;4.70;;;0.98;;
49029;SDS011;43337;52.070;4.508;2023-07-29T12:46:34;4.93;;;1.05;;
49029;SDS011;43337;52.070;4.508;2023-07-29T12:48:59;4.25;;;1.00;;
49029;SDS011;43337;52.070;4.508;2023-07-29T12:51:24;4.55;;;1.00;;
49029;SDS011;43337;52.070;4.508;2023-07-29T12:53:50;2.42;;;0.82;;
49029;SDS011;43337;52.070;4.508;2023-07-29T12:56:15;3.33;;;1.00;;
49029;SDS011;43337;52.070;4.508;2023-07-29T12:58:41;3.22;;;0.90;;
49029;SDS011;43337;52.070;4.508;2023-07-29T13:01:06;4.35;;;1.30;;
49029;SDS011;43337;52.070;4.508;2023-07-29T13:03:31;3.72;;;0.95;;
49029;SDS011;43337;52.070;4.508;2023-07-29T13:05:56;2.33;;;1.02;;
49029;SDS011;43337;52.070;4.508;2023-07-29T13:08:22;1.98;;;0.80;;
49029;SDS011;43337;52.070;4.508;2023-07-29T13:10:48;13.32;;;1.70;;
49029;SDS011;43337;52.070;4.508;2023-07-29T13:13:13;5.28;;;1.00;;
49029;SDS011;43337;52.070;4.508;2023-07-29T13:15:39;3.45;;;1.25;;
49029;SDS011;43337;52.070;4.508;2023-07-29T13:18:04;3.13;;;1.23;;
49029;SDS011;43337;52.070;4.508;2023-07-29T13:20:29;2.72;;;0.80;;
49029;SDS011;43337;52.070;4.508;2023-07-29T13:22:55;4.45;;;0.82;;
49029;SDS011;43337;52.070;4.508;2023-07-29T13:25:20;5.78;;;0.90;;
49029;SDS011;43337;52.070;4.508;2023-07-29T13:27:45;2.90;;;0.80;;
49029;SDS011;43337;52.070;4.508;2023-07-29T13:30:11;1.60;;;0.70;;
49029;SDS011;43337;52.070;4.508;2023-07-29T13:32:36;3.58;;;0.90;;
49029;SDS011;43337;52.070;4.508;2023-07-29T13:35:02;2.13;;;0.80;;
49029;SDS011;43337;52.070;4.508;2023-07-29T13:37:27;5.15;;;1.10;;
49029;SDS011;43337;52.070;4.508;2023-07-29T13:39:52;4.00;;;1.05;;
49029;SDS011;43337;52.070;4.508;2023-07-29T13:42:18;3.33;;;1.17;;
49029;SDS011;43337;52.070;4.508;2023-07-29T13:44:43;4.05;;;1.10;;
49029;SDS011;43337;52.070;4.508;2023-07-29T13:47:09;3.75;;;0.98;;
49029;SDS011;43337;52.070;4.508;2023-07-29T13:49:34;4.30;;;1.00;;
49029;SDS011;43337;52.070;4.508;2023-07-29T13:51:59;5.57;;;1.50;;
49029;SDS011;43337;52.070;4.508;2023-07-29T13:54:25;2.95;;;0.77;;
49029;SDS011;43337;52.070;4.508;2023-07-29T13:56:50;2.97;;;0.73;;
49029;SDS011;43337;52.070;4.508;2023-07-29T13:59:15;4.25;;;1.10;;
49029;SDS011;43337;52.070;4.508;2023-07-29T14:01:41;3.95;;;0.93;;
49029;SDS011;43337;52.070;4.508;2023-07-29T14:04:06;3.50;;;1.10;;
49029;SDS011;43337;52.070;4.508;2023-07-29T14:06:32;3.50;;;0.98;;
49029;SDS011;43337;52.070;4.508;2023-07-29T14:08:57;4.05;;;1.08;;
49029;SDS011;43337;52.070;4.508;2023-07-29T14:11:22;2.85;;;0.90;;
49029;SDS011;43337;52.070;4.508;2023-07-29T14:13:48;3.50;;;0.85;;
49029;SDS011;43337;52.070;4.508;2023-07-29T14:16:13;4.45;;;1.20;;
49029;SDS011;43337;52.070;4.508;2023-07-29T14:18:38;3.92;;;1.20;;
49029;SDS011;43337;52.070;4.508;2023-07-29T14:21:05;3.63;;;1.27;;
49029;SDS011;43337;52.070;4.508;2023-07-29T14:23:30;2.20;;;0.80;;
49029;SDS011;43337;52.070;4.508;2023-07-29T14:25:57;2.63;;;0.98;;
49029;SDS011;43337;52.070;4.508;2023-07-29T14:28:23;3.33;;;1.35;;
49029;SDS011;43337;52.070;4.508;2023-07-29T14:30:48;4.05;;;1.10;;
49029;SDS011;43337;52.070;4.508;2023-07-29T14:33:13;3.80;;;1.25;;
49029;SDS011;43337;52.070;4.508;2023-07-29T14:35:39;2.83;;;1.35;;
49029;SDS011;43337;52.070;4.508;2023-07-29T14:38:05;4.65;;;1.10;;
49029;SDS011;43337;52.070;4.508;2023-07-29T14:40:30;3.05;;;0.90;;
49029;SDS011;43337;52.070;4.508;2023-07-29T14:42:56;3.28;;;1.10;;
49029;SDS011;43337;52.070;4.508;2023-07-29T14:45:21;4.00;;;1.00;;
49029;SDS011;43337;52.070;4.508;2023-07-29T14:47:46;2.58;;;1.17;;
49029;SDS011;43337;52.070;4.508;2023-07-29T14:50:12;2.10;;;1.05;;
49029;SDS011;43337;52.070;4.508;2023-07-29T14:52:37;3.45;;;1.73;;
49029;SDS011;43337;52.070;4.508;2023-07-29T14:55:03;3.13;;;1.00;;
49029;SDS011;43337;52.070;4.508;2023-07-29T14:57:29;3.90;;;1.10;;
49029;SDS011;43337;52.070;4.508;2023-07-29T14:59:54;4.13;;;1.45;;